Terminal Aerodrome Forecast
Issued by NWS Austin/San Antonio, TX

Home | Current Version | Previous Version | Text Only | Print | Product List | Glossary On
Versions: 1 2 3 4 5 6 7 8 9 10 11 12 13 14 15 16 17 18 19 20 21 22 23 24 25 26 27
000
FTUS44 KEWX 201100
TAFAUS
TAF
KAUS 201131Z 2012/2118 VRB03KT P6SM BKN008 OVC015
     FM201500 07005KT P6SM BKN025
     FM201800 11008KT P6SM BKN040
      TEMPO 2020/2024 5SM -TSRA BR BKN030CB
     FM210200 16004KT P6SM SCT050 BKN250
     FM211000 VRB03KT P6SM BKN015=

USA.gov is the U.S. government's official web portal to all federal, state and local government web resources and services.